Archival Weather

Chicago O'Hare International

Chicago, Illinois (KORD)

Report from: Thursday, March 21, 2024 5:51 PM CDT
Current time: Tuesday, May 21, 2024 12:06 PM CDT

Current weather – Weather history – Daily summaries
Weather forecast

Temperature2.8°C (37.0°F)
Wind chill-1.7°C (28.9°F)
Dew point-6.7°C (19.9°F)
Winds 11 kts (5.7 m/s, 12.7 mph) East (90°)
Visibility10 mi. (16.1 km)
Clouds Few clouds 4,500 ft. (1,372 m)
Ceiling: Broken clouds 9,500 ft. (2,896 m)
Altimeter30.22 in.Hg (1023 mB)
Relative humidity50 %
Density altitude-1,782 ft. (-543 m)
Sea-level pressure102.4 kPa (1024 mB, 30.24 in.Hg)
Remarks System requires maintenance
Automated weather observing station with precipitation discriminator
Flight conditions Visual Meteorological Conditions
Raw dataKORD 212251Z 09011KT 10SM FEW045 BKN095 03/M07 A3022 RMK AO2 SLP239 T00281067 $
An error has occurred. This application may no longer respond until reloaded. Reload 🗙